sensor_id;sensor_type;location;lat;lon;timestamp;temperature;humidity
8910;DHT22;4490;49.072;8.804;2023-08-06T00:00:05;17.10;99.90
8910;DHT22;4490;49.072;8.804;2023-08-06T00:02:31;17.10;99.90
8910;DHT22;4490;49.072;8.804;2023-08-06T00:04:56;17.10;99.90
8910;DHT22;4490;49.072;8.804;2023-08-06T00:07:22;17.00;99.90
8910;DHT22;4490;49.072;8.804;2023-08-06T00:09:48;17.00;99.90
8910;DHT22;4490;49.072;8.804;2023-08-06T00:12:13;16.90;99.90
8910;DHT22;4490;49.072;8.804;2023-08-06T00:14:39;16.90;99.90
8910;DHT22;4490;49.072;8.804;2023-08-06T00:17:05;16.80;99.90
8910;DHT22;4490;49.072;8.804;2023-08-06T00:19:31;16.80;99.90
8910;DHT22;4490;49.072;8.804;2023-08-06T00:21:57;16.80;99.90
8910;DHT22;4490;49.072;8.804;2023-08-06T00:24:23;16.80;99.90
8910;DHT22;4490;49.072;8.804;2023-08-06T00:26:48;16.80;99.90
8910;DHT22;4490;49.072;8.804;2023-08-06T00:29:14;16.80;99.90
8910;DHT22;4490;49.072;8.804;2023-08-06T00:31:39;16.80;99.90
8910;DHT22;4490;49.072;8.804;2023-08-06T00:34:05;16.80;99.90
8910;DHT22;4490;49.072;8.804;2023-08-06T00:36:31;16.80;99.90
8910;DHT22;4490;49.072;8.804;2023-08-06T00:38:56;16.80;99.90
8910;DHT22;4490;49.072;8.804;2023-08-06T00:41:22;16.80;99.90
8910;DHT22;4490;49.072;8.804;2023-08-06T00:43:47;16.80;99.90
8910;DHT22;4490;49.072;8.804;2023-08-06T00:46:13;16.80;99.90
8910;DHT22;4490;49.072;8.804;2023-08-06T00:48:40;16.80;99.90
8910;DHT22;4490;49.072;8.804;2023-08-06T00:51:06;16.70;99.90
8910;DHT22;4490;49.072;8.804;2023-08-06T00:53:32;16.70;99.90
8910;DHT22;4490;49.072;8.804;2023-08-06T00:55:58;16.70;99.90
8910;DHT22;4490;49.072;8.804;2023-08-06T00:58:24;16.70;99.90
8910;DHT22;4490;49.072;8.804;2023-08-06T01:00:50;16.60;99.90
8910;DHT22;4490;49.072;8.804;2023-08-06T01:03:16;16.60;99.90
8910;DHT22;4490;49.072;8.804;2023-08-06T01:05:41;16.60;99.90
8910;DHT22;4490;49.072;8.804;2023-08-06T01:11:34;16.60;99.90
8910;DHT22;4490;49.072;8.804;2023-08-06T01:14:17;16.50;99.90
8910;DHT22;4490;49.072;8.804;2023-08-06T01:16:44;16.50;99.90
8910;DHT22;4490;49.072;8.804;2023-08-06T01:19:17;16.50;99.90
8910;DHT22;4490;49.072;8.804;2023-08-06T01:21:43;16.50;99.90
8910;DHT22;4490;49.072;8.804;2023-08-06T01:24:09;16.50;99.90
8910;DHT22;4490;49.072;8.804;2023-08-06T01:26:42;16.40;99.90
8910;DHT22;4490;49.072;8.804;2023-08-06T01:29:19;16.40;99.90
8910;DHT22;4490;49.072;8.804;2023-08-06T01:31:50;16.40;99.90
8910;DHT22;4490;49.072;8.804;2023-08-06T01:34:22;16.40;99.90
8910;DHT22;4490;49.072;8.804;2023-08-06T01:36:50;16.40;99.90
8910;DHT22;4490;49.072;8.804;2023-08-06T01:39:15;16.30;99.90
8910;DHT22;4490;49.072;8.804;2023-08-06T01:41:41;16.30;99.90
8910;DHT22;4490;49.072;8.804;2023-08-06T01:44:06;16.30;99.90
8910;DHT22;4490;49.072;8.804;2023-08-06T01:46:32;16.30;99.90
8910;DHT22;4490;49.072;8.804;2023-08-06T01:48:58;16.30;99.90
8910;DHT22;4490;49.072;8.804;2023-08-06T01:51:23;16.30;99.90
8910;DHT22;4490;49.072;8.804;2023-08-06T01:53:49;16.20;99.90
8910;DHT22;4490;49.072;8.804;2023-08-06T01:56:14;16.20;99.90
8910;DHT22;4490;49.072;8.804;2023-08-06T01:58:40;16.20;99.90
8910;DHT22;4490;49.072;8.804;2023-08-06T02:01:05;16.20;99.90
8910;DHT22;4490;49.072;8.804;2023-08-06T02:03:31;16.20;99.90
8910;DHT22;4490;49.072;8.804;2023-08-06T02:05:57;16.20;99.90
8910;DHT22;4490;49.072;8.804;2023-08-06T02:08:22;16.10;99.90
8910;DHT22;4490;49.072;8.804;2023-08-06T02:10:48;16.10;99.90
8910;DHT22;4490;49.072;8.804;2023-08-06T02:13:14;16.10;99.90
8910;DHT22;4490;49.072;8.804;2023-08-06T02:15:46;16.10;99.90
8910;DHT22;4490;49.072;8.804;2023-08-06T02:18:15;16.20;99.90
8910;DHT22;4490;49.072;8.804;2023-08-06T02:20:41;16.20;99.90
8910;DHT22;4490;49.072;8.804;2023-08-06T02:23:07;16.20;99.90
8910;DHT22;4490;49.072;8.804;2023-08-06T02:25:32;16.20;99.90
8910;DHT22;4490;49.072;8.804;2023-08-06T02:27:58;16.20;99.90
8910;DHT22;4490;49.072;8.804;2023-08-06T02:30:24;16.20;99.90
8910;DHT22;4490;49.072;8.804;2023-08-06T02:32:49;16.20;99.90
8910;DHT22;4490;49.072;8.804;2023-08-06T02:35:15;16.20;99.90
8910;DHT22;4490;49.072;8.804;2023-08-06T02:37:41;16.20;99.90
8910;DHT22;4490;49.072;8.804;2023-08-06T02:40:07;16.20;99.90
8910;DHT22;4490;49.072;8.804;2023-08-06T02:42:32;16.10;99.90
8910;DHT22;4490;49.072;8.804;2023-08-06T02:44:58;16.20;99.90
8910;DHT22;4490;49.072;8.804;2023-08-06T02:47:24;16.20;99.90
8910;DHT22;4490;49.072;8.804;2023-08-06T02:49:49;16.20;99.90
8910;DHT22;4490;49.072;8.804;2023-08-06T02:52:15;16.20;99.90
8910;DHT22;4490;49.072;8.804;2023-08-06T02:54:40;16.20;99.90
8910;DHT22;4490;49.072;8.804;2023-08-06T02:57:06;16.20;99.90
8910;DHT22;4490;49.072;8.804;2023-08-06T02:59:32;16.30;99.90
8910;DHT22;4490;49.072;8.804;2023-08-06T03:01:57;16.30;99.90
8910;DHT22;4490;49.072;8.804;2023-08-06T03:04:23;16.30;99.90
8910;DHT22;4490;49.072;8.804;2023-08-06T03:06:50;16.30;99.90
8910;DHT22;4490;49.072;8.804;2023-08-06T03:09:16;16.30;99.90
8910;DHT22;4490;49.072;8.804;2023-08-06T03:11:42;16.30;99.90
8910;DHT22;4490;49.072;8.804;2023-08-06T03:14:08;16.30;99.90
8910;DHT22;4490;49.072;8.804;2023-08-06T03:16:33;16.40;99.90
8910;DHT22;4490;49.072;8.804;2023-08-06T03:18:59;16.40;99.90
8910;DHT22;4490;49.072;8.804;2023-08-06T03:21:24;16.40;99.90
8910;DHT22;4490;49.072;8.804;2023-08-06T03:23:50;16.40;99.90
8910;DHT22;4490;49.072;8.804;2023-08-06T03:26:16;16.40;99.90
8910;DHT22;4490;49.072;8.804;2023-08-06T03:28:41;16.40;99.90
8910;DHT22;4490;49.072;8.804;2023-08-06T03:31:07;16.40;99.90
8910;DHT22;4490;49.072;8.804;2023-08-06T03:33:33;16.30;99.90
8910;DHT22;4490;49.072;8.804;2023-08-06T03:35:58;16.30;99.90
8910;DHT22;4490;49.072;8.804;2023-08-06T03:38:24;16.30;99.90
8910;DHT22;4490;49.072;8.804;2023-08-06T03:40:49;16.30;99.90
8910;DHT22;4490;49.072;8.804;2023-08-06T03:43:15;16.30;99.90
8910;DHT22;4490;49.072;8.804;2023-08-06T03:45:41;16.30;99.90
8910;DHT22;4490;49.072;8.804;2023-08-06T03:48:07;16.30;99.90
8910;DHT22;4490;49.072;8.804;2023-08-06T03:50:33;16.30;99.90
8910;DHT22;4490;49.072;8.804;2023-08-06T03:52:59;16.30;99.90
8910;DHT22;4490;49.072;8.804;2023-08-06T03:55:24;16.30;99.90
8910;DHT22;4490;49.072;8.804;2023-08-06T03:57:50;16.30;99.90
8910;DHT22;4490;49.072;8.804;2023-08-06T04:00:16;16.30;99.90
8910;DHT22;4490;49.072;8.804;2023-08-06T04:02:41;16.30;99.90
8910;DHT22;4490;49.072;8.804;2023-08-06T04:05:07;16.30;99.90
8910;DHT22;4490;49.072;8.804;2023-08-06T04:07:33;16.20;99.90
8910;DHT22;4490;49.072;8.804;2023-08-06T04:10:01;16.20;99.90
8910;DHT22;4490;49.072;8.804;2023-08-06T04:12:28;16.10;99.90
8910;DHT22;4490;49.072;8.804;2023-08-06T04:14:54;16.10;99.90
8910;DHT22;4490;49.072;8.804;2023-08-06T04:17:21;16.10;99.90
8910;DHT22;4490;49.072;8.804;2023-08-06T04:19:50;16.10;99.90
8910;DHT22;4490;49.072;8.804;2023-08-06T04:22:16;16.10;99.90
8910;DHT22;4490;49.072;8.804;2023-08-06T04:24:42;16.00;99.90
8910;DHT22;4490;49.072;8.804;2023-08-06T04:27:09;16.00;99.90
8910;DHT22;4490;49.072;8.804;2023-08-06T04:29:35;15.90;99.90
8910;DHT22;4490;49.072;8.804;2023-08-06T04:32:01;15.90;99.90
8910;DHT22;4490;49.072;8.804;2023-08-06T04:34:26;15.80;99.90
8910;DHT22;4490;49.072;8.804;2023-08-06T04:36:52;15.80;99.90
8910;DHT22;4490;49.072;8.804;2023-08-06T04:39:17;15.70;99.90
8910;DHT22;4490;49.072;8.804;2023-08-06T04:41:43;15.70;99.90
8910;DHT22;4490;49.072;8.804;2023-08-06T04:44:09;15.70;99.90
8910;DHT22;4490;49.072;8.804;2023-08-06T04:46:35;15.70;99.90
8910;DHT22;4490;49.072;8.804;2023-08-06T04:49:00;15.70;99.90
8910;DHT22;4490;49.072;8.804;2023-08-06T04:51:26;15.60;99.90
8910;DHT22;4490;49.072;8.804;2023-08-06T04:53:52;15.60;99.90
8910;DHT22;4490;49.072;8.804;2023-08-06T04:56:17;15.60;99.90
8910;DHT22;4490;49.072;8.804;2023-08-06T04:58:43;15.60;99.90
8910;DHT22;4490;49.072;8.804;2023-08-06T05:01:09;15.60;99.90
8910;DHT22;4490;49.072;8.804;2023-08-06T05:03:34;15.60;99.90
8910;DHT22;4490;49.072;8.804;2023-08-06T05:06:00;15.60;99.90
8910;DHT22;4490;49.072;8.804;2023-08-06T05:08:26;15.60;99.90
8910;DHT22;4490;49.072;8.804;2023-08-06T05:10:51;15.60;99.90
8910;DHT22;4490;49.072;8.804;2023-08-06T05:13:17;15.60;99.90
8910;DHT22;4490;49.072;8.804;2023-08-06T05:15:42;15.60;99.90
8910;DHT22;4490;49.072;8.804;2023-08-06T05:18:10;15.60;99.90
8910;DHT22;4490;49.072;8.804;2023-08-06T05:20:40;15.60;99.90
8910;DHT22;4490;49.072;8.804;2023-08-06T05:23:06;15.60;99.90
8910;DHT22;4490;49.072;8.804;2023-08-06T05:25:34;15.60;99.90
8910;DHT22;4490;49.072;8.804;2023-08-06T05:27:59;15.60;99.90
8910;DHT22;4490;49.072;8.804;2023-08-06T05:30:27;15.60;99.90
8910;DHT22;4490;49.072;8.804;2023-08-06T05:32:52;15.60;99.90
8910;DHT22;4490;49.072;8.804;2023-08-06T05:35:18;15.60;99.90
8910;DHT22;4490;49.072;8.804;2023-08-06T05:37:43;15.60;99.90
8910;DHT22;4490;49.072;8.804;2023-08-06T05:40:09;15.70;99.90
8910;DHT22;4490;49.072;8.804;2023-08-06T05:42:35;15.70;99.90
8910;DHT22;4490;49.072;8.804;2023-08-06T05:45:00;15.70;99.90
8910;DHT22;4490;49.072;8.804;2023-08-06T05:47:26;15.70;99.90
8910;DHT22;4490;49.072;8.804;2023-08-06T05:49:51;15.70;99.90
8910;DHT22;4490;49.072;8.804;2023-08-06T05:52:17;15.70;99.90
8910;DHT22;4490;49.072;8.804;2023-08-06T05:54:43;15.70;99.90
8910;DHT22;4490;49.072;8.804;2023-08-06T05:57:08;15.80;99.90
8910;DHT22;4490;49.072;8.804;2023-08-06T05:59:34;15.80;99.90
8910;DHT22;4490;49.072;8.804;2023-08-06T06:01:59;15.90;99.90
8910;DHT22;4490;49.072;8.804;2023-08-06T06:04:25;15.90;99.90
8910;DHT22;4490;49.072;8.804;2023-08-06T06:06:51;15.90;99.90
8910;DHT22;4490;49.072;8.804;2023-08-06T06:09:16;15.90;99.90
8910;DHT22;4490;49.072;8.804;2023-08-06T06:11:42;15.90;99.90
8910;DHT22;4490;49.072;8.804;2023-08-06T06:14:07;15.90;99.90
8910;DHT22;4490;49.072;8.804;2023-08-06T06:16:34;15.90;99.90
8910;DHT22;4490;49.072;8.804;2023-08-06T06:18:59;15.90;99.90
8910;DHT22;4490;49.072;8.804;2023-08-06T06:21:25;15.90;99.90
8910;DHT22;4490;49.072;8.804;2023-08-06T06:23:51;15.90;99.90
8910;DHT22;4490;49.072;8.804;2023-08-06T06:26:19;15.90;99.90
8910;DHT22;4490;49.072;8.804;2023-08-06T06:28:45;15.90;99.90
8910;DHT22;4490;49.072;8.804;2023-08-06T06:31:11;15.80;99.90
8910;DHT22;4490;49.072;8.804;2023-08-06T06:33:36;15.80;99.90
8910;DHT22;4490;49.072;8.804;2023-08-06T06:36:02;15.90;99.90
8910;DHT22;4490;49.072;8.804;2023-08-06T06:38:29;15.80;99.90
8910;DHT22;4490;49.072;8.804;2023-08-06T06:40:58;15.90;99.90
8910;DHT22;4490;49.072;8.804;2023-08-06T06:43:24;15.80;99.90
8910;DHT22;4490;49.072;8.804;2023-08-06T06:45:56;15.80;99.90
8910;DHT22;4490;49.072;8.804;2023-08-06T06:48:23;15.80;99.90
8910;DHT22;4490;49.072;8.804;2023-08-06T06:50:49;15.80;99.90
8910;DHT22;4490;49.072;8.804;2023-08-06T06:53:15;15.80;99.90
8910;DHT22;4490;49.072;8.804;2023-08-06T06:55:40;15.80;99.90
8910;DHT22;4490;49.072;8.804;2023-08-06T06:58:06;15.80;99.90
8910;DHT22;4490;49.072;8.804;2023-08-06T07:00:31;15.80;99.90
8910;DHT22;4490;49.072;8.804;2023-08-06T07:02:57;15.80;99.90
8910;DHT22;4490;49.072;8.804;2023-08-06T07:05:22;15.80;99.90
8910;DHT22;4490;49.072;8.804;2023-08-06T07:07:48;15.70;99.90
8910;DHT22;4490;49.072;8.804;2023-08-06T07:10:13;15.70;99.90
8910;DHT22;4490;49.072;8.804;2023-08-06T07:12:39;15.70;99.90
8910;DHT22;4490;49.072;8.804;2023-08-06T07:15:06;15.70;99.90
8910;DHT22;4490;49.072;8.804;2023-08-06T07:17:32;15.70;99.90
8910;DHT22;4490;49.072;8.804;2023-08-06T07:19:58;15.70;99.90
8910;DHT22;4490;49.072;8.804;2023-08-06T07:22:23;15.70;99.90
8910;DHT22;4490;49.072;8.804;2023-08-06T07:24:49;15.70;99.90
8910;DHT22;4490;49.072;8.804;2023-08-06T07:27:15;15.80;99.90
8910;DHT22;4490;49.072;8.804;2023-08-06T07:29:40;15.80;99.90
8910;DHT22;4490;49.072;8.804;2023-08-06T07:32:07;15.80;99.90
8910;DHT22;4490;49.072;8.804;2023-08-06T07:34:32;15.90;99.90
8910;DHT22;4490;49.072;8.804;2023-08-06T07:36:58;15.90;99.90
8910;DHT22;4490;49.072;8.804;2023-08-06T07:39:24;15.90;99.90
8910;DHT22;4490;49.072;8.804;2023-08-06T07:41:50;16.00;99.90
8910;DHT22;4490;49.072;8.804;2023-08-06T07:44:15;16.10;99.90
8910;DHT22;4490;49.072;8.804;2023-08-06T07:46:41;16.10;99.90
8910;DHT22;4490;49.072;8.804;2023-08-06T07:49:07;16.20;99.90
8910;DHT22;4490;49.072;8.804;2023-08-06T07:51:32;16.20;99.90
8910;DHT22;4490;49.072;8.804;2023-08-06T07:53:58;16.20;99.90
8910;DHT22;4490;49.072;8.804;2023-08-06T07:56:24;16.20;99.90
8910;DHT22;4490;49.072;8.804;2023-08-06T07:58:49;16.30;99.90
8910;DHT22;4490;49.072;8.804;2023-08-06T08:01:15;16.30;99.90
8910;DHT22;4490;49.072;8.804;2023-08-06T08:03:40;16.40;99.90
8910;DHT22;4490;49.072;8.804;2023-08-06T08:06:06;16.40;99.90
8910;DHT22;4490;49.072;8.804;2023-08-06T08:08:31;16.40;99.90
8910;DHT22;4490;49.072;8.804;2023-08-06T08:10:57;16.40;99.90
8910;DHT22;4490;49.072;8.804;2023-08-06T08:13:24;16.50;99.90
8910;DHT22;4490;49.072;8.804;2023-08-06T08:15:50;16.60;99.90
8910;DHT22;4490;49.072;8.804;2023-08-06T08:18:15;16.70;99.90
8910;DHT22;4490;49.072;8.804;2023-08-06T08:20:41;16.80;99.90
8910;DHT22;4490;49.072;8.804;2023-08-06T08:23:06;16.90;99.90
8910;DHT22;4490;49.072;8.804;2023-08-06T08:25:32;17.00;99.90
8910;DHT22;4490;49.072;8.804;2023-08-06T08:27:59;17.10;99.90
8910;DHT22;4490;49.072;8.804;2023-08-06T08:30:25;17.10;99.90
8910;DHT22;4490;49.072;8.804;2023-08-06T08:32:50;17.20;99.90
8910;DHT22;4490;49.072;8.804;2023-08-06T08:35:17;17.30;99.90
8910;DHT22;4490;49.072;8.804;2023-08-06T08:37:43;17.40;99.90
8910;DHT22;4490;49.072;8.804;2023-08-06T08:40:09;17.50;99.90
8910;DHT22;4490;49.072;8.804;2023-08-06T08:42:36;17.50;99.90
8910;DHT22;4490;49.072;8.804;2023-08-06T08:45:04;17.60;99.90
8910;DHT22;4490;49.072;8.804;2023-08-06T08:47:30;17.60;99.90
8910;DHT22;4490;49.072;8.804;2023-08-06T08:49:57;17.50;99.90
8910;DHT22;4490;49.072;8.804;2023-08-06T08:52:23;17.40;99.90
8910;DHT22;4490;49.072;8.804;2023-08-06T08:54:51;17.30;99.90
8910;DHT22;4490;49.072;8.804;2023-08-06T08:57:18;17.20;99.90
8910;DHT22;4490;49.072;8.804;2023-08-06T08:59:44;17.10;99.90
8910;DHT22;4490;49.072;8.804;2023-08-06T09:02:11;17.00;99.90
8910;DHT22;4490;49.072;8.804;2023-08-06T09:04:39;17.00;99.90
8910;DHT22;4490;49.072;8.804;2023-08-06T09:07:08;17.00;99.90
8910;DHT22;4490;49.072;8.804;2023-08-06T09:09:36;16.90;99.90
8910;DHT22;4490;49.072;8.804;2023-08-06T09:12:11;16.90;99.90
8910;DHT22;4490;49.072;8.804;2023-08-06T09:14:37;16.90;99.90
8910;DHT22;4490;49.072;8.804;2023-08-06T09:17:04;16.90;99.90
8910;DHT22;4490;49.072;8.804;2023-08-06T09:19:31;16.90;99.90
8910;DHT22;4490;49.072;8.804;2023-08-06T09:21:57;16.90;99.90
8910;DHT22;4490;49.072;8.804;2023-08-06T09:24:30;16.90;99.90
8910;DHT22;4490;49.072;8.804;2023-08-06T09:26:55;16.90;99.90
8910;DHT22;4490;49.072;8.804;2023-08-06T09:29:22;16.90;99.90
8910;DHT22;4490;49.072;8.804;2023-08-06T09:31:49;16.90;99.90
8910;DHT22;4490;49.072;8.804;2023-08-06T09:34:18;17.00;99.90
8910;DHT22;4490;49.072;8.804;2023-08-06T09:36:50;17.00;99.90
8910;DHT22;4490;49.072;8.804;2023-08-06T09:39:21;17.00;99.90
8910;DHT22;4490;49.072;8.804;2023-08-06T09:41:48;17.00;99.90
8910;DHT22;4490;49.072;8.804;2023-08-06T09:44:18;17.10;99.90
8910;DHT22;4490;49.072;8.804;2023-08-06T09:46:54;17.20;99.90
8910;DHT22;4490;49.072;8.804;2023-08-06T09:49:24;17.20;99.90
8910;DHT22;4490;49.072;8.804;2023-08-06T09:51:51;17.30;99.90
8910;DHT22;4490;49.072;8.804;2023-08-06T09:54:17;17.40;99.90
8910;DHT22;4490;49.072;8.804;2023-08-06T09:56:46;17.40;99.90
8910;DHT22;4490;49.072;8.804;2023-08-06T09:59:13;17.40;99.90
8910;DHT22;4490;49.072;8.804;2023-08-06T10:01:39;17.50;99.90
8910;DHT22;4490;49.072;8.804;2023-08-06T10:04:06;17.50;99.90
8910;DHT22;4490;49.072;8.804;2023-08-06T10:06:37;17.50;99.90
8910;DHT22;4490;49.072;8.804;2023-08-06T10:09:03;17.50;99.90
8910;DHT22;4490;49.072;8.804;2023-08-06T10:11:30;17.30;99.90
8910;DHT22;4490;49.072;8.804;2023-08-06T10:14:20;17.30;99.90
8910;DHT22;4490;49.072;8.804;2023-08-06T10:16:47;17.30;99.90
8910;DHT22;4490;49.072;8.804;2023-08-06T10:19:15;17.20;99.90
8910;DHT22;4490;49.072;8.804;2023-08-06T10:21:42;17.10;99.90
8910;DHT22;4490;49.072;8.804;2023-08-06T10:24:27;17.00;99.90
8910;DHT22;4490;49.072;8.804;2023-08-06T10:26:58;16.80;99.90
8910;DHT22;4490;49.072;8.804;2023-08-06T10:29:36;16.80;99.90
8910;DHT22;4490;49.072;8.804;2023-08-06T10:32:03;16.80;99.90
8910;DHT22;4490;49.072;8.804;2023-08-06T10:34:58;16.80;99.90
8910;DHT22;4490;49.072;8.804;2023-08-06T10:37:34;16.80;99.90
8910;DHT22;4490;49.072;8.804;2023-08-06T10:40:00;16.70;99.90
8910;DHT22;4490;49.072;8.804;2023-08-06T10:42:30;16.70;99.90
8910;DHT22;4490;49.072;8.804;2023-08-06T10:47:38;16.70;99.90
8910;DHT22;4490;49.072;8.804;2023-08-06T10:50:10;16.70;99.90
8910;DHT22;4490;49.072;8.804;2023-08-06T10:52:36;16.70;99.90
8910;DHT22;4490;49.072;8.804;2023-08-06T10:55:01;16.70;99.90
8910;DHT22;4490;49.072;8.804;2023-08-06T10:57:27;16.70;99.90
8910;DHT22;4490;49.072;8.804;2023-08-06T10:59:53;16.70;99.90
8910;DHT22;4490;49.072;8.804;2023-08-06T11:02:18;16.60;99.90
8910;DHT22;4490;49.072;8.804;2023-08-06T11:04:44;16.60;99.90
8910;DHT22;4490;49.072;8.804;2023-08-06T11:07:10;16.50;99.90
8910;DHT22;4490;49.072;8.804;2023-08-06T11:09:36;16.40;99.90
8910;DHT22;4490;49.072;8.804;2023-08-06T11:12:02;16.40;99.90
8910;DHT22;4490;49.072;8.804;2023-08-06T11:14:32;16.40;99.90
8910;DHT22;4490;49.072;8.804;2023-08-06T11:16:57;16.30;99.90
8910;DHT22;4490;49.072;8.804;2023-08-06T11:19:23;16.30;99.90
8910;DHT22;4490;49.072;8.804;2023-08-06T11:21:51;16.20;99.90
8910;DHT22;4490;49.072;8.804;2023-08-06T11:24:17;16.20;99.90
8910;DHT22;4490;49.072;8.804;2023-08-06T11:26:43;16.10;99.90
8910;DHT22;4490;49.072;8.804;2023-08-06T11:29:10;16.10;99.90
8910;DHT22;4490;49.072;8.804;2023-08-06T11:31:36;16.00;99.90
8910;DHT22;4490;49.072;8.804;2023-08-06T11:34:01;16.00;99.90
8910;DHT22;4490;49.072;8.804;2023-08-06T11:36:36;15.90;99.90
8910;DHT22;4490;49.072;8.804;2023-08-06T11:39:05;15.90;99.90
8910;DHT22;4490;49.072;8.804;2023-08-06T11:41:31;15.80;99.90
8910;DHT22;4490;49.072;8.804;2023-08-06T11:43:58;15.80;99.90
8910;DHT22;4490;49.072;8.804;2023-08-06T11:46:24;15.80;99.90
8910;DHT22;4490;49.072;8.804;2023-08-06T11:48:56;15.70;99.90
8910;DHT22;4490;49.072;8.804;2023-08-06T11:51:25;15.70;99.90
8910;DHT22;4490;49.072;8.804;2023-08-06T11:53:56;15.60;99.90
8910;DHT22;4490;49.072;8.804;2023-08-06T11:56:22;15.60;99.90
8910;DHT22;4490;49.072;8.804;2023-08-06T11:58:48;15.50;99.90
8910;DHT22;4490;49.072;8.804;2023-08-06T12:01:15;15.50;99.90
8910;DHT22;4490;49.072;8.804;2023-08-06T12:03:41;15.40;99.90
8910;DHT22;4490;49.072;8.804;2023-08-06T12:06:06;15.40;99.90
8910;DHT22;4490;49.072;8.804;2023-08-06T12:08:33;15.40;99.90
8910;DHT22;4490;49.072;8.804;2023-08-06T12:10:58;15.30;99.90
8910;DHT22;4490;49.072;8.804;2023-08-06T12:13:24;15.30;99.90
8910;DHT22;4490;49.072;8.804;2023-08-06T12:15:50;15.30;99.90
8910;DHT22;4490;49.072;8.804;2023-08-06T12:18:18;15.30;99.90
8910;DHT22;4490;49.072;8.804;2023-08-06T12:20:44;15.30;99.90
8910;DHT22;4490;49.072;8.804;2023-08-06T12:23:09;15.30;99.90
8910;DHT22;4490;49.072;8.804;2023-08-06T12:25:35;15.30;99.90
8910;DHT22;4490;49.072;8.804;2023-08-06T12:28:01;15.40;99.90
8910;DHT22;4490;49.072;8.804;2023-08-06T12:30:26;15.30;99.90
8910;DHT22;4490;49.072;8.804;2023-08-06T12:32:52;15.40;99.90
8910;DHT22;4490;49.072;8.804;2023-08-06T12:35:17;15.40;99.90
8910;DHT22;4490;49.072;8.804;2023-08-06T12:37:43;15.40;99.90
8910;DHT22;4490;49.072;8.804;2023-08-06T12:40:10;15.50;99.90
8910;DHT22;4490;49.072;8.804;2023-08-06T12:42:36;15.40;99.90
8910;DHT22;4490;49.072;8.804;2023-08-06T12:45:02;15.50;99.90
8910;DHT22;4490;49.072;8.804;2023-08-06T12:47:28;15.50;99.90
8910;DHT22;4490;49.072;8.804;2023-08-06T12:49:53;15.50;99.90
8910;DHT22;4490;49.072;8.804;2023-08-06T12:52:19;15.60;99.90
8910;DHT22;4490;49.072;8.804;2023-08-06T12:54:45;15.60;99.90
8910;DHT22;4490;49.072;8.804;2023-08-06T12:57:11;15.60;99.90
8910;DHT22;4490;49.072;8.804;2023-08-06T12:59:37;15.70;99.90
8910;DHT22;4490;49.072;8.804;2023-08-06T13:02:03;15.70;99.90
8910;DHT22;4490;49.072;8.804;2023-08-06T13:04:29;15.70;99.90
8910;DHT22;4490;49.072;8.804;2023-08-06T13:06:55;15.70;99.90
8910;DHT22;4490;49.072;8.804;2023-08-06T13:09:20;15.70;99.90
8910;DHT22;4490;49.072;8.804;2023-08-06T13:11:46;15.80;99.90
8910;DHT22;4490;49.072;8.804;2023-08-06T13:14:13;15.80;99.90
8910;DHT22;4490;49.072;8.804;2023-08-06T13:16:41;15.80;99.90
8910;DHT22;4490;49.072;8.804;2023-08-06T13:19:07;15.70;99.90
8910;DHT22;4490;49.072;8.804;2023-08-06T13:21:35;15.70;99.90
8910;DHT22;4490;49.072;8.804;2023-08-06T13:24:03;15.70;99.90
8910;DHT22;4490;49.072;8.804;2023-08-06T13:26:30;15.70;99.90
8910;DHT22;4490;49.072;8.804;2023-08-06T13:28:57;15.60;99.90
8910;DHT22;4490;49.072;8.804;2023-08-06T13:31:23;15.70;99.90
8910;DHT22;4490;49.072;8.804;2023-08-06T13:33:48;15.60;99.90
8910;DHT22;4490;49.072;8.804;2023-08-06T13:36:15;15.60;99.90
8910;DHT22;4490;49.072;8.804;2023-08-06T13:38:41;15.60;99.90
8910;DHT22;4490;49.072;8.804;2023-08-06T13:41:07;15.70;99.90
8910;DHT22;4490;49.072;8.804;2023-08-06T13:43:32;15.70;99.90
8910;DHT22;4490;49.072;8.804;2023-08-06T13:45:58;15.80;99.90
8910;DHT22;4490;49.072;8.804;2023-08-06T13:48:24;15.80;99.90
8910;DHT22;4490;49.072;8.804;2023-08-06T13:50:49;15.90;99.90
8910;DHT22;4490;49.072;8.804;2023-08-06T13:53:15;15.90;99.90
8910;DHT22;4490;49.072;8.804;2023-08-06T13:55:41;15.90;99.90
8910;DHT22;4490;49.072;8.804;2023-08-06T13:58:06;15.90;99.90
8910;DHT22;4490;49.072;8.804;2023-08-06T14:00:32;15.80;99.90
8910;DHT22;4490;49.072;8.804;2023-08-06T14:02:58;15.70;99.90
8910;DHT22;4490;49.072;8.804;2023-08-06T14:05:23;15.70;99.90
8910;DHT22;4490;49.072;8.804;2023-08-06T14:07:49;15.70;99.90
8910;DHT22;4490;49.072;8.804;2023-08-06T14:10:14;15.70;99.90
8910;DHT22;4490;49.072;8.804;2023-08-06T14:12:40;15.70;99.90
8910;DHT22;4490;49.072;8.804;2023-08-06T14:15:06;15.70;99.90
8910;DHT22;4490;49.072;8.804;2023-08-06T14:17:32;15.80;99.90
8910;DHT22;4490;49.072;8.804;2023-08-06T14:19:57;15.80;99.90
8910;DHT22;4490;49.072;8.804;2023-08-06T14:22:23;15.80;99.90
8910;DHT22;4490;49.072;8.804;2023-08-06T14:24:48;15.80;99.90
8910;DHT22;4490;49.072;8.804;2023-08-06T14:27:14;15.80;99.90
8910;DHT22;4490;49.072;8.804;2023-08-06T14:29:40;15.90;99.90
8910;DHT22;4490;49.072;8.804;2023-08-06T14:32:05;15.90;99.90
8910;DHT22;4490;49.072;8.804;2023-08-06T14:34:31;15.90;99.90
8910;DHT22;4490;49.072;8.804;2023-08-06T14:36:57;16.00;99.90
8910;DHT22;4490;49.072;8.804;2023-08-06T14:39:22;16.00;99.90
8910;DHT22;4490;49.072;8.804;2023-08-06T14:41:48;16.10;99.90
8910;DHT22;4490;49.072;8.804;2023-08-06T14:44:14;16.10;99.90
8910;DHT22;4490;49.072;8.804;2023-08-06T14:46:39;16.10;99.90
8910;DHT22;4490;49.072;8.804;2023-08-06T14:49:05;16.20;99.90
8910;DHT22;4490;49.072;8.804;2023-08-06T14:51:30;16.20;99.90
8910;DHT22;4490;49.072;8.804;2023-08-06T14:53:56;16.20;99.90
8910;DHT22;4490;49.072;8.804;2023-08-06T14:56:21;16.20;99.90
8910;DHT22;4490;49.072;8.804;2023-08-06T14:58:48;16.30;99.90
8910;DHT22;4490;49.072;8.804;2023-08-06T15:01:14;16.30;99.90
8910;DHT22;4490;49.072;8.804;2023-08-06T15:03:39;16.30;99.90
8910;DHT22;4490;49.072;8.804;2023-08-06T15:06:05;16.30;99.90
8910;DHT22;4490;49.072;8.804;2023-08-06T15:08:31;16.30;99.90
8910;DHT22;4490;49.072;8.804;2023-08-06T15:10:56;16.20;99.90
8910;DHT22;4490;49.072;8.804;2023-08-06T15:13:22;16.20;99.90
8910;DHT22;4490;49.072;8.804;2023-08-06T15:15:49;16.20;99.90
8910;DHT22;4490;49.072;8.804;2023-08-06T15:18:14;16.20;99.90
8910;DHT22;4490;49.072;8.804;2023-08-06T15:20:40;16.20;99.90
8910;DHT22;4490;49.072;8.804;2023-08-06T15:23:06;16.10;99.90
8910;DHT22;4490;49.072;8.804;2023-08-06T15:25:31;16.10;99.90
8910;DHT22;4490;49.072;8.804;2023-08-06T15:27:57;16.10;99.90
8910;DHT22;4490;49.072;8.804;2023-08-06T15:30:22;16.10;99.90
8910;DHT22;4490;49.072;8.804;2023-08-06T15:32:48;16.00;99.90
8910;DHT22;4490;49.072;8.804;2023-08-06T15:35:14;16.00;99.90
8910;DHT22;4490;49.072;8.804;2023-08-06T15:37:40;16.00;99.90
8910;DHT22;4490;49.072;8.804;2023-08-06T15:40:07;16.00;99.90
8910;DHT22;4490;49.072;8.804;2023-08-06T15:42:33;16.00;99.90
8910;DHT22;4490;49.072;8.804;2023-08-06T15:44:59;15.90;99.90
8910;DHT22;4490;49.072;8.804;2023-08-06T15:47:25;15.90;99.90
8910;DHT22;4490;49.072;8.804;2023-08-06T15:49:50;15.80;99.90
8910;DHT22;4490;49.072;8.804;2023-08-06T15:52:16;15.80;99.90
8910;DHT22;4490;49.072;8.804;2023-08-06T15:54:43;15.80;99.90
8910;DHT22;4490;49.072;8.804;2023-08-06T15:57:09;15.70;99.90
8910;DHT22;4490;49.072;8.804;2023-08-06T15:59:34;15.70;99.90
8910;DHT22;4490;49.072;8.804;2023-08-06T16:02:01;15.60;99.90